createdAt,value
2019-03-11T00:00:58.031Z,1021.26
2019-03-11T00:01:57.782Z,1021.25
2019-03-11T00:02:57.931Z,1021.3
2019-03-11T00:03:58.092Z,1021.25
2019-03-11T00:04:57.836Z,1021.28
2019-03-11T00:05:57.918Z,1021.28
2019-03-11T00:06:58.030Z,1021.32
2019-03-11T00:07:57.901Z,1021.28
2019-03-11T00:08:57.940Z,1021.29
2019-03-11T00:09:58.094Z,1021.26
2019-03-11T00:10:57.895Z,1021.29
2019-03-11T00:11:57.938Z,1021.24
2019-03-11T00:12:58.047Z,1021.24
2019-03-11T00:13:57.836Z,1021.28
2019-03-11T00:14:57.945Z,1021.28
2019-03-11T00:15:58.073Z,1021.28
2019-03-11T00:16:57.842Z,1021.27
2019-03-11T00:17:58.045Z,1021.29
2019-03-11T00:18:58.034Z,1021.34
2019-03-11T00:19:57.905Z,1021.28
2019-03-11T00:20:57.904Z,1021.28
2019-03-11T00:21:58.074Z,1021.18
2019-03-11T00:22:57.986Z,1021.22
2019-03-11T00:23:57.934Z,1021.22
2019-03-11T00:24:58.058Z,1021.18
2019-03-11T00:25:58.162Z,1021.17
2019-03-11T00:26:57.975Z,1021.15
2019-03-11T00:27:58.045Z,1021.17
2019-03-11T00:28:57.883Z,1021.16
2019-03-11T00:29:57.943Z,1021.19
2019-03-11T00:30:58.050Z,1021.16
2019-03-11T00:31:57.867Z,1021.17
2019-03-11T00:32:57.942Z,1021.13
2019-03-11T00:33:58.062Z,1021.2
2019-03-11T00:34:57.887Z,1021.14
2019-03-11T00:35:57.931Z,1021.19
2019-03-11T00:36:57.825Z,1021.16
2019-03-11T00:37:57.891Z,1021.11
2019-03-11T00:38:57.951Z,1021.11
2019-03-11T00:39:57.795Z,1021.08
2019-03-11T00:40:57.916Z,1021.04
2019-03-11T00:41:58.103Z,1021.06
2019-03-11T00:42:57.796Z,1021.05
2019-03-11T00:43:57.953Z,1021.07
2019-03-11T00:44:58.019Z,1021.05
2019-03-11T00:45:57.937Z,1021
2019-03-11T00:46:57.925Z,1021.03
2019-03-11T00:48:02.900Z,1021.01
2019-03-11T00:48:57.965Z,1021.05
2019-03-11T00:49:57.948Z,1020.99
2019-03-11T00:50:57.994Z,1021.02
2019-03-11T00:51:57.825Z,1021.02
2019-03-11T00:52:57.973Z,1021.01
2019-03-11T00:53:58.005Z,1021.01
2019-03-11T00:54:57.809Z,1021
2019-03-11T00:55:58.064Z,1021
2019-03-11T00:56:58.061Z,1020.96
2019-03-11T00:57:57.909Z,1020.99
2019-03-11T00:58:57.945Z,1020.93
2019-03-11T00:59:58.012Z,1020.95
2019-03-11T01:00:57.905Z,1020.9
2019-03-11T01:01:59.252Z,1020.83
2019-03-11T01:02:58.212Z,1020.83
2019-03-11T01:03:57.970Z,1020.83
2019-03-11T01:04:57.984Z,1020.84
2019-03-11T01:05:57.806Z,1020.8
2019-03-11T01:06:57.870Z,1020.85
2019-03-11T01:07:57.999Z,1020.76
2019-03-11T01:08:57.848Z,1020.8
2019-03-11T01:09:58.406Z,1020.72
2019-03-11T01:10:58.018Z,1020.72
2019-03-11T01:11:57.854Z,1020.73
2019-03-11T01:12:58.003Z,1020.72
2019-03-11T01:13:58.125Z,1020.7
2019-03-11T01:14:57.997Z,1020.73
2019-03-11T01:15:58.007Z,1020.72
2019-03-11T01:16:58.055Z,1020.73
2019-03-11T01:17:57.895Z,1020.68
2019-03-11T01:18:57.934Z,1020.65
2019-03-11T01:19:58.046Z,1020.67
2019-03-11T01:20:57.954Z,1020.66
2019-03-11T01:21:57.931Z,1020.59
2019-03-11T01:22:57.740Z,1020.65
2019-03-11T01:23:57.910Z,1020.62
2019-03-11T01:24:57.929Z,1020.62
2019-03-11T01:25:57.763Z,1020.62
2019-03-11T01:26:57.956Z,1020.63
2019-03-11T01:27:57.913Z,1020.62
2019-03-11T01:28:57.766Z,1020.59
2019-03-11T01:29:57.928Z,1020.58
2019-03-11T01:30:57.924Z,1020.6
2019-03-11T01:31:58.130Z,1020.64
2019-03-11T01:32:57.909Z,1020.6
2019-03-11T01:33:57.975Z,1020.54
2019-03-11T01:34:57.807Z,1020.51
2019-03-11T01:35:57.922Z,1020.5
2019-03-11T01:36:58.094Z,1020.46
2019-03-11T01:37:57.838Z,1020.44
2019-03-11T01:38:58.032Z,1020.41
2019-03-11T01:39:57.915Z,1020.4
2019-03-11T01:40:57.845Z,1020.38
2019-03-11T01:41:58.010Z,1020.3
2019-03-11T01:42:57.819Z,1020.34
2019-03-11T01:43:57.880Z,1020.29
2019-03-11T01:44:57.965Z,1020.29
2019-03-11T01:45:57.949Z,1020.26
2019-03-11T01:46:58.239Z,1020.16
2019-03-11T01:47:58.009Z,1020.19
2019-03-11T01:48:57.847Z,1020.07
2019-03-11T01:49:57.916Z,1020.1
2019-03-11T01:50:57.990Z,1020.07
2019-03-11T01:51:57.869Z,1020.02
2019-03-11T01:52:57.996Z,1020
2019-03-11T01:53:58.161Z,1020.06
2019-03-11T01:54:57.843Z,1019.98
2019-03-11T01:55:57.923Z,1020
2019-03-11T01:56:58.031Z,1019.97
2019-03-11T01:57:57.807Z,1019.95
2019-03-11T01:58:58.206Z,1019.95
2019-03-11T01:59:57.768Z,1019.89
2019-03-11T02:00:57.887Z,1019.86
2019-03-11T02:01:58.054Z,1019.88
2019-03-11T02:02:57.791Z,1019.8
2019-03-11T02:03:57.877Z,1019.79
2019-03-11T02:04:57.965Z,1019.7
2019-03-11T02:05:57.929Z,1019.71
2019-03-11T02:06:57.928Z,1019.66
2019-03-11T02:07:57.984Z,1019.72
2019-03-11T02:08:57.873Z,1019.68
2019-03-11T02:09:57.985Z,1019.72
2019-03-11T02:10:57.807Z,1019.7
2019-03-11T02:11:57.832Z,1019.72
2019-03-11T02:12:57.946Z,1019.72
2019-03-11T02:13:57.730Z,1019.76
2019-03-11T02:14:57.952Z,1019.74
2019-03-11T02:15:58.097Z,1019.7
2019-03-11T02:16:57.828Z,1019.69
2019-03-11T02:17:57.877Z,1019.64
2019-03-11T02:18:57.987Z,1019.64
2019-03-11T02:19:57.786Z,1019.6
2019-03-11T02:20:57.862Z,1019.54
2019-03-11T02:21:57.939Z,1019.56
2019-03-11T02:22:57.950Z,1019.54
2019-03-11T02:23:58.228Z,1019.49
2019-03-11T02:24:57.995Z,1019.49
2019-03-11T02:25:57.848Z,1019.52
2019-03-11T02:26:57.992Z,1019.53
2019-03-11T02:27:58.005Z,1019.5
2019-03-11T02:28:57.961Z,1019.47
2019-03-11T02:29:57.895Z,1019.5
2019-03-11T02:30:58.043Z,1019.49
2019-03-11T02:31:57.812Z,1019.49
2019-03-11T02:32:57.958Z,1019.48
2019-03-11T02:33:57.785Z,1019.44
2019-03-11T02:34:57.838Z,1019.47
2019-03-11T02:35:58.264Z,1019.47
2019-03-11T02:36:57.870Z,1019.51
2019-03-11T02:37:57.906Z,1019.45
2019-03-11T02:38:57.969Z,1019.43
2019-03-11T02:39:57.844Z,1019.5
2019-03-11T02:40:57.979Z,1019.45
2019-03-11T02:41:58.118Z,1019.41
2019-03-11T02:42:57.802Z,1019.47
2019-03-11T02:43:57.944Z,1019.43
2019-03-11T02:44:57.989Z,1019.46
2019-03-11T02:45:57.855Z,1019.41
2019-03-11T02:46:57.936Z,1019.45
2019-03-11T02:47:57.796Z,1019.45
2019-03-11T02:48:57.880Z,1019.36
2019-03-11T02:49:58.008Z,1019.4
2019-03-11T02:50:57.844Z,1019.38
2019-03-11T02:51:57.827Z,1019.36
2019-03-11T02:52:57.978Z,1019.31
2019-03-11T02:53:57.812Z,1019.31
2019-03-11T02:54:57.946Z,1019.28
2019-03-11T02:55:57.951Z,1019.26
2019-03-11T02:56:57.845Z,1019.25
2019-03-11T02:57:57.832Z,1019.22
2019-03-11T02:58:57.918Z,1019.23
2019-03-11T02:59:57.791Z,1019.22
2019-03-11T03:00:57.861Z,1019.14
2019-03-11T03:01:58.006Z,1019.1
2019-03-11T03:02:57.811Z,1019.03
2019-03-11T03:03:57.960Z,1018.98
2019-03-11T03:04:57.736Z,1019
2019-03-11T03:05:57.804Z,1018.96
2019-03-11T03:06:57.943Z,1018.96
2019-03-11T03:07:57.821Z,1018.88
2019-03-11T03:08:57.905Z,1018.92
2019-03-11T03:09:57.928Z,1018.91
2019-03-11T03:10:57.868Z,1018.93
2019-03-11T03:11:57.931Z,1018.98
2019-03-11T03:12:58.061Z,1018.96
2019-03-11T03:13:57.805Z,1019.02
2019-03-11T03:14:57.980Z,1019.02
2019-03-11T03:15:57.786Z,1019.15
2019-03-11T03:16:57.888Z,1019.19
2019-03-11T03:17:57.978Z,1019.18
2019-03-11T03:18:57.815Z,1019.2
2019-03-11T03:19:57.933Z,1019.2
2019-03-11T03:20:58.279Z,1019.19
2019-03-11T03:21:57.795Z,1019.19
2019-03-11T03:22:57.991Z,1019.2
2019-03-11T03:23:58.028Z,1019.19
2019-03-11T03:24:57.838Z,1019.11
2019-03-11T03:25:57.845Z,1019.15
2019-03-11T03:26:58.060Z,1019.11
2019-03-11T03:27:58.350Z,1019.12
2019-03-11T03:28:57.852Z,1019.12
2019-03-11T03:29:58.003Z,1019.11
2019-03-11T03:30:57.947Z,1019.08
2019-03-11T03:31:57.957Z,1019.14
2019-03-11T03:32:57.741Z,1019.12
2019-03-11T03:33:57.862Z,1019.04
2019-03-11T03:34:57.893Z,1019.12
2019-03-11T03:35:57.680Z,1019.07
2019-03-11T03:36:57.867Z,1019.1
2019-03-11T03:37:57.855Z,1019.08
2019-03-11T03:38:57.734Z,1019.1
2019-03-11T03:39:57.799Z,1019.07
2019-03-11T03:40:57.883Z,1019.01
2019-03-11T03:41:57.864Z,1019.03
2019-03-11T03:42:58.688Z,1018.93
2019-03-11T03:43:57.904Z,1018.96
2019-03-11T03:44:57.785Z,1018.93
2019-03-11T03:45:57.839Z,1018.89
2019-03-11T03:46:58.968Z,1018.92
2019-03-11T03:47:57.758Z,1018.88
2019-03-11T03:48:57.872Z,1018.94
2019-03-11T03:49:57.930Z,1018.88
2019-03-11T03:50:57.803Z,1018.8
2019-03-11T03:51:58.101Z,1018.73
2019-03-11T03:52:57.918Z,1018.69
2019-03-11T03:53:57.919Z,1018.71
2019-03-11T03:54:57.873Z,1018.65
2019-03-11T03:55:57.979Z,1018.68
2019-03-11T03:56:57.873Z,1018.57
2019-03-11T03:57:57.970Z,1018.65
2019-03-11T03:58:57.742Z,1018.58
2019-03-11T03:59:57.848Z,1018.6
2019-03-11T04:00:57.925Z,1018.61
2019-03-11T04:01:57.902Z,1018.57
2019-03-11T04:02:57.800Z,1018.69
2019-03-11T04:03:58.122Z,1018.56
2019-03-11T04:04:58.202Z,1018.58
2019-03-11T04:05:57.840Z,1018.57
2019-03-11T04:06:58.097Z,1018.52
2019-03-11T04:07:57.797Z,1018.43
2019-03-11T04:08:57.862Z,1018.45
2019-03-11T04:09:57.953Z,1018.41
2019-03-11T04:10:57.808Z,1018.39
2019-03-11T04:11:57.971Z,1018.43
2019-03-11T04:12:57.964Z,1018.37
2019-03-11T04:13:57.929Z,1018.38
2019-03-11T04:14:57.990Z,1018.35
2019-03-11T04:15:58.030Z,1018.37
2019-03-11T04:16:57.909Z,1018.36
2019-03-11T04:17:58.006Z,1018.36
2019-03-11T04:18:57.860Z,1018.39
2019-03-11T04:19:57.905Z,1018.39
2019-03-11T04:20:58.072Z,1018.42
2019-03-11T04:21:57.743Z,1018.4
2019-03-11T04:22:57.881Z,1018.39
2019-03-11T04:23:58.040Z,1018.43
2019-03-11T04:24:57.809Z,1018.41
2019-03-11T04:25:58.242Z,1018.4
2019-03-11T04:26:57.905Z,1018.34
2019-03-11T04:27:57.793Z,1018.29
2019-03-11T04:28:57.865Z,1018.29
2019-03-11T04:29:57.940Z,1018.31
2019-03-11T04:30:57.864Z,1018.22
2019-03-11T04:31:57.899Z,1018.22
2019-03-11T04:32:57.771Z,1018.21
2019-03-11T04:33:57.760Z,1018.18
2019-03-11T04:34:57.880Z,1018.21
2019-03-11T04:35:57.816Z,1018.12
2019-03-11T04:36:57.766Z,1018.07
2019-03-11T04:37:57.915Z,1017.99
2019-03-11T04:38:57.756Z,1018.05
2019-03-11T04:39:57.786Z,1017.97
2019-03-11T04:40:57.903Z,1018.07
2019-03-11T04:41:57.755Z,1018.14
2019-03-11T04:42:57.804Z,1018.28
2019-03-11T04:43:57.878Z,1018.48
2019-03-11T04:44:57.806Z,1018.68
2019-03-11T04:45:57.794Z,1018.76
2019-03-11T04:46:58.010Z,1018.93
2019-03-11T04:47:57.792Z,1018.96
2019-03-11T04:48:57.944Z,1018.87
2019-03-11T04:50:00.847Z,1018.99
2019-03-11T04:50:57.735Z,1018.79
2019-03-11T04:51:57.836Z,1018.86
2019-03-11T04:52:57.945Z,1019.02
2019-03-11T04:53:57.779Z,1018.78
2019-03-11T04:54:57.892Z,1018.68
2019-03-11T04:55:57.710Z,1018.67
2019-03-11T04:56:57.876Z,1018.81
2019-03-11T04:57:57.818Z,1018.86
2019-03-11T04:58:57.687Z,1018.9
2019-03-11T04:59:57.858Z,1018.9
2019-03-11T05:00:57.971Z,1018.92
2019-03-11T05:01:57.713Z,1018.91
2019-03-11T05:02:57.809Z,1018.97
2019-03-11T05:03:57.901Z,1018.93
2019-03-11T05:04:57.853Z,1018.95
2019-03-11T05:05:57.769Z,1018.91
2019-03-11T05:06:57.950Z,1018.87
2019-03-11T05:07:57.775Z,1018.92
2019-03-11T05:08:58.656Z,1018.93
2019-03-11T05:09:57.881Z,1019.04
2019-03-11T05:10:57.774Z,1019.07
2019-03-11T05:11:57.985Z,1019.17
2019-03-11T05:12:57.740Z,1019.13
2019-03-11T05:13:57.724Z,1019.16
2019-03-11T05:14:57.915Z,1019.16
2019-03-11T05:15:57.708Z,1019.03
2019-03-11T05:16:57.777Z,1018.95
2019-03-11T05:17:57.908Z,1019.05
2019-03-11T05:18:57.984Z,1019.04
2019-03-11T05:19:57.843Z,1019.01
2019-03-11T05:20:57.867Z,1018.93
2019-03-11T05:21:57.720Z,1018.91
2019-03-11T05:22:57.885Z,1018.96
2019-03-11T05:23:57.970Z,1019.01
2019-03-11T05:24:57.766Z,1019.02
2019-03-11T05:25:57.825Z,1019.02
2019-03-11T05:26:57.921Z,1018.99
2019-03-11T05:27:57.763Z,1018.96
2019-03-11T05:28:57.911Z,1018.99
2019-03-11T05:29:57.987Z,1018.96
2019-03-11T05:30:57.933Z,1018.94
2019-03-11T05:31:57.817Z,1018.95
2019-03-11T05:32:57.928Z,1018.96
2019-03-11T05:33:57.750Z,1018.94
2019-03-11T05:34:57.890Z,1018.89
2019-03-11T05:35:58.207Z,1018.91
2019-03-11T05:36:57.809Z,1018.89
2019-03-11T05:37:57.939Z,1018.94
2019-03-11T05:38:57.682Z,1018.91
2019-03-11T05:39:57.799Z,1018.89
2019-03-11T05:40:57.882Z,1018.9
2019-03-11T05:41:57.800Z,1018.95
2019-03-11T05:42:57.767Z,1018.95
2019-03-11T05:43:57.954Z,1018.94
2019-03-11T05:44:57.723Z,1019.02
2019-03-11T05:45:57.834Z,1019.02
2019-03-11T05:46:57.972Z,1019.06
2019-03-11T05:47:57.714Z,1019.08
2019-03-11T05:48:57.840Z,1019.16
2019-03-11T05:49:57.844Z,1019.21
2019-03-11T05:50:58.025Z,1019.2
2019-03-11T05:51:57.821Z,1019.3
2019-03-11T05:52:57.967Z,1019.35
2019-03-11T05:53:57.791Z,1019.35
2019-03-11T05:54:57.831Z,1019.37
2019-03-11T05:55:58.448Z,1019.37
2019-03-11T05:56:59.383Z,1019.35
2019-03-11T05:57:57.799Z,1019.31
2019-03-11T05:58:57.900Z,1019.21
2019-03-11T05:59:57.867Z,1019.27
2019-03-11T06:00:57.827Z,1019.25
2019-03-11T06:01:57.881Z,1019.3
2019-03-11T06:02:57.757Z,1019.37
2019-03-11T06:03:57.882Z,1019.35
2019-03-11T06:04:57.716Z,1019.36
2019-03-11T06:05:57.775Z,1019.41
2019-03-11T06:06:57.893Z,1019.39
2019-03-11T06:07:57.827Z,1019.38
2019-03-11T06:08:57.783Z,1019.37
2019-03-11T06:09:57.920Z,1019.4
2019-03-11T06:10:57.714Z,1019.42
2019-03-11T06:11:57.797Z,1019.36
2019-03-11T06:12:58.010Z,1019.33
2019-03-11T06:13:57.790Z,1019.4
2019-03-11T06:14:57.827Z,1019.38
2019-03-11T06:15:57.661Z,1019.37
2019-03-11T06:16:57.806Z,1019.35
2019-03-11T06:17:57.896Z,1019.36
2019-03-11T06:18:57.785Z,1019.38
2019-03-11T06:19:57.788Z,1019.34
2019-03-11T06:20:57.945Z,1019.37
2019-03-11T06:21:57.784Z,1019.27
2019-03-11T06:22:57.785Z,1019.34
2019-03-11T06:23:57.885Z,1019.29
2019-03-11T06:24:57.924Z,1019.33
2019-03-11T06:25:57.817Z,1019.25
2019-03-11T06:26:57.856Z,1019.31
2019-03-11T06:27:57.701Z,1019.26
2019-03-11T06:28:57.862Z,1019.27
2019-03-11T06:29:57.955Z,1019.27
2019-03-11T06:30:57.713Z,1019.27
2019-03-11T06:31:57.816Z,1019.3
2019-03-11T06:32:57.890Z,1019.35
2019-03-11T06:33:58.041Z,1019.23
2019-03-11T06:34:57.950Z,1019.25
2019-03-11T06:35:57.746Z,1019.35
2019-03-11T06:36:57.802Z,1019.42
2019-03-11T06:37:57.937Z,1019.41
2019-03-11T06:39:06.392Z,1019.47
2019-03-11T06:39:57.778Z,1019.45
2019-03-11T06:40:57.925Z,1019.45
2019-03-11T06:41:57.883Z,1019.46
2019-03-11T06:42:58.198Z,1019.43
2019-03-11T06:43:57.966Z,1019.42
2019-03-11T06:44:57.874Z,1019.43
2019-03-11T06:45:57.843Z,1019.38
2019-03-11T06:46:57.691Z,1019.39
2019-03-11T06:47:57.764Z,1019.34
2019-03-11T06:48:57.879Z,1019.39
2019-03-11T06:49:57.683Z,1019.46
2019-03-11T06:50:57.824Z,1019.44
2019-03-11T06:51:57.830Z,1019.4
2019-03-11T06:52:57.792Z,1019.47
2019-03-11T06:53:57.854Z,1019.49
2019-03-11T06:54:58.003Z,1019.48
2019-03-11T06:55:58.138Z,1019.5
2019-03-11T06:56:57.880Z,1019.42
2019-03-11T06:57:57.920Z,1019.48
2019-03-11T06:58:57.681Z,1019.4
2019-03-11T06:59:57.884Z,1019.43
2019-03-11T07:00:57.792Z,1019.45
2019-03-11T07:01:57.762Z,1019.44
2019-03-11T07:02:57.866Z,1019.42
2019-03-11T07:03:57.821Z,1019.42
2019-03-11T07:04:57.750Z,1019.36
2019-03-11T07:05:57.880Z,1019.39
2019-03-11T07:06:57.687Z,1019.42
2019-03-11T07:07:57.896Z,1019.45
2019-03-11T07:08:57.910Z,1019.45
2019-03-11T07:09:57.732Z,1019.45
2019-03-11T07:10:57.813Z,1019.58
2019-03-11T07:11:57.799Z,1019.69
2019-03-11T07:12:57.737Z,1019.83
2019-03-11T07:13:57.812Z,1019.84
2019-03-11T07:14:57.636Z,1019.82
2019-03-11T07:15:57.760Z,1019.85
2019-03-11T07:16:57.827Z,1019.89
2019-03-11T07:17:57.664Z,1019.93
2019-03-11T07:18:57.755Z,1019.92
2019-03-11T07:19:57.822Z,1019.84
2019-03-11T07:20:57.697Z,1019.81
2019-03-11T07:21:57.737Z,1019.8
2019-03-11T07:22:57.883Z,1019.84
2019-03-11T07:23:57.662Z,1019.86
2019-03-11T07:24:57.888Z,1019.93
2019-03-11T07:25:57.944Z,1019.92
2019-03-11T07:26:57.674Z,1019.93
2019-03-11T07:27:57.839Z,1019.93
2019-03-11T07:28:57.907Z,1019.96
2019-03-11T07:29:57.756Z,1019.99
2019-03-11T07:30:57.912Z,1019.95
2019-03-11T07:31:57.810Z,1020.05
2019-03-11T07:32:57.777Z,1020.03
2019-03-11T07:33:57.864Z,1020
2019-03-11T07:35:09.088Z,1020.03
2019-03-11T07:35:57.831Z,1020.03
2019-03-11T07:36:57.882Z,1020.11
2019-03-11T07:37:58.021Z,1020.1
2019-03-11T07:38:58.171Z,1020.19
2019-03-11T07:39:57.896Z,1020.13
2019-03-11T07:40:57.692Z,1020.19
2019-03-11T07:41:57.786Z,1020.19
2019-03-11T07:42:57.656Z,1020.21
2019-03-11T07:43:57.763Z,1020.19
2019-03-11T07:44:57.823Z,1020.16
2019-03-11T07:45:57.778Z,1020.16
2019-03-11T07:46:57.794Z,1020.21
2019-03-11T07:47:57.871Z,1020.24
2019-03-11T07:48:57.690Z,1020.18
2019-03-11T07:49:57.813Z,1020.25
2019-03-11T07:50:57.862Z,1020.23
2019-03-11T07:51:57.709Z,1020.2
2019-03-11T07:52:57.827Z,1020.24
2019-03-11T07:53:57.819Z,1020.3
2019-03-11T07:54:57.678Z,1020.37
2019-03-11T07:55:57.894Z,1020.32
2019-03-11T07:56:57.702Z,1020.27
2019-03-11T07:57:57.777Z,1020.23
2019-03-11T07:58:57.832Z,1020.24
2019-03-11T07:59:57.910Z,1020.3
2019-03-11T08:00:57.711Z,1020.32
2019-03-11T08:01:57.812Z,1020.35
2019-03-11T08:02:57.717Z,1020.31
2019-03-11T08:03:57.794Z,1020.34
2019-03-11T08:04:57.897Z,1020.32
2019-03-11T08:05:57.713Z,1020.36
2019-03-11T08:06:57.885Z,1020.38
2019-03-11T08:07:58.303Z,1020.37
2019-03-11T08:08:57.776Z,1020.32
2019-03-11T08:09:57.764Z,1020.43
2019-03-11T08:10:57.589Z,1020.42
2019-03-11T08:11:57.843Z,1020.39
2019-03-11T08:12:57.923Z,1020.49
2019-03-11T08:13:57.621Z,1020.54
2019-03-11T08:14:57.808Z,1020.54
2019-03-11T08:15:57.799Z,1020.49
2019-03-11T08:16:57.772Z,1020.47
2019-03-11T08:17:57.826Z,1020.52
2019-03-11T08:18:57.880Z,1020.48
2019-03-11T08:19:57.644Z,1020.52
2019-03-11T08:20:57.817Z,1020.53
2019-03-11T08:21:57.699Z,1020.52
2019-03-11T08:22:57.683Z,1020.53
2019-03-11T08:23:57.884Z,1020.51
2019-03-11T08:24:57.686Z,1020.48
2019-03-11T08:25:57.724Z,1020.52
2019-03-11T08:26:57.898Z,1020.54
2019-03-11T08:27:57.739Z,1020.53
2019-03-11T08:28:57.778Z,1020.55
2019-03-11T08:29:59.795Z,1020.54
2019-03-11T08:30:57.673Z,1020.57
2019-03-11T08:31:57.693Z,1020.52
2019-03-11T08:32:57.904Z,1020.61
2019-03-11T08:33:57.718Z,1020.65
2019-03-11T08:34:57.723Z,1020.62
2019-03-11T08:35:57.662Z,1020.7
2019-03-11T08:36:57.871Z,1020.66
2019-03-11T08:38:05.456Z,1020.7
2019-03-11T08:38:57.904Z,1020.66
2019-03-11T08:39:57.791Z,1020.65
2019-03-11T08:40:57.811Z,1020.66
2019-03-11T08:41:57.856Z,1020.63
2019-03-11T08:42:57.735Z,1020.69
2019-03-11T08:43:57.854Z,1020.67
2019-03-11T08:44:57.622Z,1020.7
2019-03-11T08:45:57.695Z,1020.77
2019-03-11T08:46:57.738Z,1020.59
2019-03-11T08:47:57.706Z,1020.75
2019-03-11T08:48:57.734Z,1020.71
2019-03-11T08:49:57.798Z,1020.64
2019-03-11T08:50:57.727Z,1020.7
2019-03-11T08:51:57.756Z,1020.61
2019-03-11T08:52:57.812Z,1020.61
2019-03-11T08:53:57.763Z,1020.7
2019-03-11T08:54:57.830Z,1020.67
2019-03-11T08:55:57.834Z,1020.6
2019-03-11T08:56:57.647Z,1020.66
2019-03-11T08:57:57.786Z,1020.7
2019-03-11T08:58:57.688Z,1020.72
2019-03-11T08:59:57.648Z,1020.66
2019-03-11T09:00:57.841Z,1020.62
2019-03-11T09:01:57.647Z,1020.65
2019-03-11T09:02:57.818Z,1020.68
2019-03-11T09:03:57.762Z,1020.65
2019-03-11T09:04:57.996Z,1020.66
2019-03-11T09:05:57.748Z,1020.65
2019-03-11T09:06:57.864Z,1020.71
2019-03-11T09:07:57.762Z,1020.67
2019-03-11T09:08:57.860Z,1020.7
2019-03-11T09:09:57.712Z,1020.69
2019-03-11T09:10:57.765Z,1020.76
2019-03-11T09:11:57.947Z,1020.71
2019-03-11T09:12:57.678Z,1020.71
2019-03-11T09:13:57.739Z,1020.68
2019-03-11T09:14:57.810Z,1020.74
2019-03-11T09:15:57.768Z,1020.67
2019-03-11T09:16:57.820Z,1020.68
2019-03-11T09:17:57.698Z,1020.78
2019-03-11T09:18:57.798Z,1020.72
2019-03-11T09:19:57.891Z,1020.76
2019-03-11T09:20:57.716Z,1020.79
2019-03-11T09:21:57.748Z,1020.8
2019-03-11T09:22:57.863Z,1020.75
2019-03-11T09:23:57.658Z,1020.77
2019-03-11T09:24:57.780Z,1020.89
2019-03-11T09:25:57.850Z,1020.92
2019-03-11T09:26:58.444Z,1020.87
2019-03-11T09:27:57.781Z,1020.86
2019-03-11T09:28:57.698Z,1020.88
2019-03-11T09:29:57.768Z,1020.83
2019-03-11T09:30:57.796Z,1020.87
2019-03-11T09:31:57.697Z,1020.85
2019-03-11T09:32:57.795Z,1020.87
2019-03-11T09:33:57.825Z,1020.79
2019-03-11T09:34:57.603Z,1020.78
2019-03-11T09:35:57.763Z,1020.79
2019-03-11T09:36:57.717Z,1020.77
2019-03-11T09:37:57.766Z,1020.85
2019-03-11T09:38:57.820Z,1020.82
2019-03-11T09:39:57.641Z,1020.84
2019-03-11T09:40:57.718Z,1020.82
2019-03-11T09:41:57.898Z,1020.85
2019-03-11T09:42:57.607Z,1020.8
2019-03-11T09:43:57.818Z,1020.83
2019-03-11T09:44:57.760Z,1020.83
2019-03-11T09:45:57.684Z,1020.84
2019-03-11T09:46:57.841Z,1020.8
2019-03-11T09:47:59.519Z,1020.91
2019-03-11T09:48:57.675Z,1020.88
2019-03-11T09:49:57.713Z,1020.97
2019-03-11T09:50:59.436Z,1020.98
2019-03-11T09:51:57.774Z,1020.93
2019-03-11T09:52:57.861Z,1020.89
2019-03-11T09:53:57.622Z,1020.88
2019-03-11T09:54:57.707Z,1020.91
2019-03-11T09:55:57.742Z,1020.93
2019-03-11T09:56:57.592Z,1020.86
2019-03-11T09:57:57.736Z,1020.82
2019-03-11T09:58:57.956Z,1020.86
2019-03-11T09:59:57.644Z,1020.84
2019-03-11T10:00:57.795Z,1020.87
2019-03-11T10:01:57.633Z,1020.86
2019-03-11T10:02:57.697Z,1020.86
2019-03-11T10:03:57.892Z,1020.86
2019-03-11T10:04:57.575Z,1020.83
2019-03-11T10:05:57.765Z,1020.81
2019-03-11T10:06:57.946Z,1020.85
2019-03-11T10:07:58.291Z,1020.86
2019-03-11T10:08:57.745Z,1020.87
2019-03-11T10:09:57.656Z,1020.9
2019-03-11T10:10:57.662Z,1020.88
2019-03-11T10:11:57.797Z,1020.89
2019-03-11T10:12:57.592Z,1020.88
2019-03-11T10:13:57.806Z,1020.88
2019-03-11T10:14:57.775Z,1020.89
2019-03-11T10:15:57.656Z,1020.92
2019-03-11T10:16:57.806Z,1020.91
2019-03-11T10:17:57.907Z,1020.88
2019-03-11T10:18:57.648Z,1020.87
2019-03-11T10:19:57.770Z,1020.85
2019-03-11T10:20:57.603Z,1020.84
2019-03-11T10:21:57.642Z,1020.8
2019-03-11T10:22:57.763Z,1020.88
2019-03-11T10:23:59.594Z,1020.91
2019-03-11T10:24:57.661Z,1020.88
2019-03-11T10:25:57.839Z,1020.91
2019-03-11T10:26:57.663Z,1020.85
2019-03-11T10:27:57.782Z,1020.84
2019-03-11T10:28:57.814Z,1020.9
2019-03-11T10:29:57.663Z,1020.91
2019-03-11T10:30:58.087Z,1020.9
2019-03-11T10:31:57.812Z,1020.98
2019-03-11T10:32:57.681Z,1020.95
2019-03-11T10:33:57.704Z,1020.94
2019-03-11T10:34:57.530Z,1021.02
2019-03-11T10:35:57.744Z,1021.02
2019-03-11T10:36:57.696Z,1021.02
2019-03-11T10:37:57.542Z,1021.03
2019-03-11T10:38:57.705Z,1021.02
2019-03-11T10:39:58.036Z,1021.02
2019-03-11T10:40:57.703Z,1020.99
2019-03-11T10:41:57.711Z,1021.06
2019-03-11T10:42:57.828Z,1021.03
2019-03-11T10:43:57.639Z,1021.07
2019-03-11T10:44:57.776Z,1021.13
2019-03-11T10:45:57.690Z,1021.16
2019-03-11T10:46:57.676Z,1021.18
2019-03-11T10:47:57.703Z,1021.23
2019-03-11T10:48:57.615Z,1021.23
2019-03-11T10:49:57.654Z,1021.28
2019-03-11T10:50:58.185Z,1021.19
2019-03-11T10:51:57.574Z,1021.23
2019-03-11T10:52:57.763Z,1021.24
2019-03-11T10:53:57.795Z,1021.27
2019-03-11T10:54:57.608Z,1021.32
2019-03-11T10:56:00.169Z,1021.25
2019-03-11T10:56:57.831Z,1021.28
2019-03-11T10:57:57.665Z,1021.23
2019-03-11T10:58:57.723Z,1021.29
2019-03-11T10:59:57.860Z,1021.19
2019-03-11T11:00:57.625Z,1021.27
2019-03-11T11:01:57.832Z,1021.29
2019-03-11T11:02:57.558Z,1021.24
2019-03-11T11:03:57.710Z,1021.34
2019-03-11T11:04:57.716Z,1021.44
2019-03-11T11:05:57.701Z,1021.38
2019-03-11T11:06:57.705Z,1021.4
2019-03-11T11:07:57.861Z,1021.46
2019-03-11T11:08:57.979Z,1021.46
2019-03-11T11:09:57.754Z,1021.52
2019-03-11T11:10:57.729Z,1021.49
2019-03-11T11:11:57.624Z,1021.57
2019-03-11T11:12:57.777Z,1021.56
2019-03-11T11:13:57.610Z,1021.6
2019-03-11T11:14:57.646Z,1021.61
2019-03-11T11:15:57.832Z,1021.56
2019-03-11T11:16:57.657Z,1021.59
2019-03-11T11:17:57.902Z,1021.59
2019-03-11T11:18:57.547Z,1021.61
2019-03-11T11:20:04.192Z,1021.62
2019-03-11T11:20:57.839Z,1021.62
2019-03-11T11:21:57.750Z,1021.6
2019-03-11T11:22:57.717Z,1021.49
2019-03-11T11:23:57.894Z,1021.6
2019-03-11T11:24:57.581Z,1021.53
2019-03-11T11:25:57.829Z,1021.63
2019-03-11T11:26:58.070Z,1021.61
2019-03-11T11:27:57.625Z,1021.6
2019-03-11T11:28:57.813Z,1021.75
2019-03-11T11:29:57.600Z,1021.71
2019-03-11T11:30:57.682Z,1021.74
2019-03-11T11:31:57.757Z,1021.71
2019-03-11T11:32:57.970Z,1021.78
2019-03-11T11:33:57.679Z,1021.77
2019-03-11T11:34:57.856Z,1021.72
2019-03-11T11:35:57.795Z,1021.77
2019-03-11T11:36:57.678Z,1021.79
2019-03-11T11:37:58.217Z,1021.73
2019-03-11T11:38:57.670Z,1021.75
2019-03-11T11:39:57.707Z,1021.71
2019-03-11T11:40:57.513Z,1021.78
2019-03-11T11:41:57.711Z,1021.81
2019-03-11T11:42:57.963Z,1021.72
2019-03-11T11:43:57.598Z,1021.73
2019-03-11T11:44:57.702Z,1021.84
2019-03-11T11:45:57.558Z,1021.77
2019-03-11T11:46:57.733Z,1021.84
2019-03-11T11:47:57.744Z,1021.88
2019-03-11T11:48:57.593Z,1021.85
2019-03-11T11:49:57.636Z,1021.88
2019-03-11T11:50:57.775Z,1021.9
2019-03-11T11:51:57.623Z,1021.89
2019-03-11T11:52:57.672Z,1021.95
2019-03-11T11:53:57.864Z,1021.94
2019-03-11T11:54:57.609Z,1021.95
2019-03-11T11:55:58.423Z,1021.95
2019-03-11T11:56:57.601Z,1021.96
2019-03-11T11:57:57.880Z,1021.91
2019-03-11T11:58:57.712Z,1021.98
2019-03-11T11:59:57.541Z,1021.98
2019-03-11T12:00:57.673Z,1021.96
2019-03-11T12:02:04.479Z,1022.01
2019-03-11T12:02:57.748Z,1021.97
2019-03-11T12:03:57.680Z,1021.96
2019-03-11T12:04:57.728Z,1022.03
2019-03-11T12:05:57.674Z,1021.99
2019-03-11T12:06:57.698Z,1021.97
2019-03-11T12:07:57.772Z,1021.97
2019-03-11T12:08:57.619Z,1021.97